Time;durP1;ratioP1;P1;durP2;ratioP2;P2;SDS_P1;SDS_P2;PMS_P1;PMS_P2;Temp;Humidity;BMP_temperature;BMP_pressure;BME280_temperature;BME280_humidity;BME280_pressure;Samples;Min_cycle;Max_cycle;Signal;HPM_P1;HPM_P2
2021/11/11 00:00:25;;;;;;;79.63;43.22;;;5.00;99.90;;;;;;5038281;28;20029;-82
2021/11/11 00:02:52;;;;;;;85.00;43.78;;;5.10;99.90;;;;;;5045742;28;20025;-82
2021/11/11 00:05:18;;;;;;;80.32;43.00;;;5.10;99.90;;;;;;5043169;28;20044;-83
2021/11/11 00:07:44;;;;;;;89.00;44.65;;;5.10;99.90;;;;;;5042948;28;20036;-82
2021/11/11 00:10:13;;;;;;;85.10;44.17;;;5.00;99.90;;;;;;5044556;28;20030;-82
2021/11/11 00:12:39;;;;;;;78.53;44.42;;;5.00;99.90;;;;;;5044831;28;20037;-82
2021/11/11 00:15:08;;;;;;;77.72;43.38;;;5.10;99.90;;;;;;5043228;28;20032;-82
2021/11/11 00:17:35;;;;;;;76.40;41.05;;;5.00;99.90;;;;;;5044188;28;20028;-83
2021/11/11 00:20:01;;;;;;;77.13;43.35;;;5.00;99.90;;;;;;5042877;28;20028;-83
2021/11/11 00:22:27;;;;;;;85.28;46.22;;;5.00;99.90;;;;;;5043781;28;20507;-83
2021/11/11 00:24:52;;;;;;;85.97;47.22;;;5.00;99.90;;;;;;5040229;28;20018;-82
2021/11/11 00:27:18;;;;;;;82.90;43.63;;;5.00;99.90;;;;;;5033457;28;20029;-81
2021/11/11 00:29:44;;;;;;;85.00;45.72;;;5.00;99.90;;;;;;5050184;28;20043;-82
2021/11/11 00:32:13;;;;;;;71.32;42.28;;;4.90;99.90;;;;;;5049441;28;20048;-82
2021/11/11 00:34:39;;;;;;;75.68;43.22;;;4.90;99.90;;;;;;5049148;28;20039;-83
2021/11/11 00:37:06;;;;;;;75.40;40.55;;;4.90;99.90;;;;;;5045941;28;20013;-81
2021/11/11 00:39:32;;;;;;;72.05;40.95;;;4.90;99.90;;;;;;5052222;28;20083;-83
2021/11/11 00:41:58;;;;;;;81.57;42.78;;;4.90;99.90;;;;;;5045669;28;20366;-82
2021/11/11 00:44:24;;;;;;;83.07;41.58;;;4.90;99.90;;;;;;5043053;28;20021;-83
2021/11/11 00:46:49;;;;;;;76.03;42.30;;;4.90;99.90;;;;;;5047552;28;20048;-83
2021/11/11 00:49:15;;;;;;;82.65;41.53;;;4.90;99.90;;;;;;5044602;28;20024;-82
2021/11/11 00:51:41;;;;;;;80.43;43.17;;;4.90;99.90;;;;;;5048223;28;20033;-80
2021/11/11 00:54:07;;;;;;;77.70;41.30;;;4.90;99.90;;;;;;5049730;28;20033;-84
2021/11/11 00:56:33;;;;;;;71.13;38.75;;;4.90;99.90;;;;;;5049765;28;20028;-83
2021/11/11 00:58:59;;;;;;;83.72;41.40;;;4.90;99.90;;;;;;5047874;28;20033;-83
2021/11/11 01:01:28;;;;;;;81.28;42.40;;;4.90;99.90;;;;;;5054694;28;20037;-83
2021/11/11 01:04:01;;;;;;;75.15;39.70;;;4.90;99.90;;;;;;5048216;28;20078;-83
2021/11/11 01:06:27;;;;;;;;;;;4.90;99.90;;;;;;5056061;28;20025;-82
2021/11/11 01:08:53;;;;;;;72.80;39.20;;;4.90;99.90;;;;;;5054749;28;20003;-80
2021/11/11 01:11:19;;;;;;;76.93;36.88;;;4.90;99.90;;;;;;5049411;28;20099;-81
2021/11/11 01:13:44;;;;;;;64.72;36.80;;;4.80;99.90;;;;;;5050866;28;20023;-81
2021/11/11 01:16:10;;;;;;;68.72;39.70;;;4.80;99.90;;;;;;5048356;28;20036;-81
2021/11/11 01:18:36;;;;;;;69.07;37.17;;;4.80;99.90;;;;;;5054010;28;20020;-81
2021/11/11 01:21:02;;;;;;;69.28;37.15;;;4.90;99.90;;;;;;5049183;28;20091;-80
2021/11/11 01:23:28;;;;;;;68.60;37.92;;;4.90;99.90;;;;;;5046366;28;20396;-82
2021/11/11 01:25:54;;;;;;;73.95;37.25;;;4.90;99.90;;;;;;5050207;28;20078;-82
2021/11/11 01:28:19;;;;;;;76.00;39.47;;;4.90;99.90;;;;;;5047718;28;20021;-82
2021/11/11 01:30:45;;;;;;;69.38;36.85;;;4.90;99.90;;;;;;5050656;28;20071;-82
2021/11/11 01:33:13;;;;;;;69.72;38.38;;;4.90;99.90;;;;;;5052862;28;20049;-81
2021/11/11 01:35:39;;;;;;;75.03;37.53;;;4.90;99.90;;;;;;5049785;28;20358;-82
2021/11/11 01:38:05;;;;;;;72.10;39.10;;;4.90;99.90;;;;;;5047702;28;20055;-82
2021/11/11 01:40:31;;;;;;;68.95;37.05;;;4.90;99.90;;;;;;5048710;28;20024;-82
2021/11/11 01:43:00;;;;;;;73.85;38.55;;;4.80;99.90;;;;;;5053767;28;20040;-82
2021/11/11 01:45:28;;;;;;;68.82;36.55;;;4.80;99.90;;;;;;5043662;28;20049;-82
2021/11/11 01:47:54;;;;;;;67.75;36.67;;;4.80;99.90;;;;;;5051775;28;20024;-82
2021/11/11 01:50:21;;;;;;;71.80;36.92;;;4.70;99.90;;;;;;5047699;28;20020;-82
2021/11/11 01:52:47;;;;;;;70.63;38.55;;;4.70;99.90;;;;;;5050265;28;20032;-83
2021/11/11 01:55:13;;;;;;;70.07;36.97;;;4.70;99.90;;;;;;5058057;28;20028;-82
2021/11/11 01:57:40;;;;;;;72.38;38.15;;;4.50;99.90;;;;;;5047777;28;20471;-83
2021/11/11 02:00:15;;;;;;;78.88;40.67;;;4.50;99.90;;;;;;5052844;28;20108;-82
2021/11/11 02:02:40;;;;;;;74.20;41.33;;;4.50;99.90;;;;;;5044780;28;20102;-82
2021/11/11 02:05:07;;;;;;;67.35;39.10;;;4.60;99.90;;;;;;5047812;28;20458;-82
2021/11/11 02:07:32;;;;;;;72.47;38.45;;;4.60;99.90;;;;;;5047824;28;20074;-82
2021/11/11 02:09:58;;;;;;;72.00;38.58;;;4.60;99.90;;;;;;5054596;28;20103;-82
2021/11/11 02:12:24;;;;;;;73.70;37.28;;;4.70;99.90;;;;;;5050553;28;20377;-82
2021/11/11 02:14:50;;;;;;;73.75;39.65;;;4.70;99.90;;;;;;5045703;28;20044;-83
2021/11/11 02:17:25;;;;;;;80.70;38.90;;;4.70;99.90;;;;;;5047486;28;20013;-82
2021/11/11 02:20:08;;;;;;;75.90;39.17;;;4.70;99.90;;;;;;5044591;28;20025;-82
2021/11/11 02:22:34;;;;;;;75.28;38.67;;;4.60;99.90;;;;;;5052586;28;20465;-82
2021/11/11 02:25:01;;;;;;;72.78;38.28;;;4.60;99.90;;;;;;5043531;28;20021;-83
2021/11/11 02:27:27;;;;;;;78.22;38.70;;;4.60;99.90;;;;;;5050678;28;20031;-81
2021/11/11 02:29:52;;;;;;;75.97;37.00;;;4.60;99.90;;;;;;5050144;28;20033;-82
2021/11/11 02:32:18;;;;;;;74.00;37.42;;;4.60;99.90;;;;;;5053009;28;20381;-82
2021/11/11 02:34:44;;;;;;;86.93;43.22;;;4.70;99.90;;;;;;5045528;28;20040;-82
2021/11/11 02:37:10;;;;;;;93.93;46.50;;;4.70;99.90;;;;;;5050548;28;20020;-82
2021/11/11 02:39:38;;;;;;;104.30;55.20;;;4.60;99.90;;;;;;5043641;28;20029;-82
2021/11/11 02:42:04;;;;;;;79.53;42.83;;;4.60;99.90;;;;;;5051499;28;20009;-82
2021/11/11 02:44:31;;;;;;;90.35;45.85;;;4.50;99.90;;;;;;5046400;28;20049;-82
2021/11/11 02:46:58;;;;;;;89.22;43.33;;;4.40;99.90;;;;;;5046114;28;20020;-83
2021/11/11 02:49:33;;;;;;;94.82;45.97;;;4.40;99.90;;;;;;5051500;28;20061;-81
2021/11/11 02:51:59;;;;;;;84.35;40.88;;;4.40;99.90;;;;;;5052296;28;20100;-82
2021/11/11 02:54:26;;;;;;;79.20;40.50;;;4.40;99.90;;;;;;5050155;28;20040;-81
2021/11/11 02:56:51;;;;;;;74.50;39.72;;;4.40;99.90;;;;;;5050700;28;20060;-81
2021/11/11 02:59:17;;;;;;;86.70;41.50;;;4.50;99.90;;;;;;5048984;28;20056;-82
2021/11/11 03:01:42;;;;;;;78.20;37.80;;;4.50;99.90;;;;;;5050923;28;20112;-82
2021/11/11 03:04:08;;;;;;;77.80;40.47;;;4.40;99.90;;;;;;5046336;28;20358;-82
2021/11/11 03:06:37;;;;;;;80.65;40.53;;;4.40;99.90;;;;;;5051330;28;20096;-81
2021/11/11 03:09:03;;;;;;;90.03;43.55;;;4.40;99.90;;;;;;5056044;28;20083;-82
2021/11/11 03:11:30;;;;;;;81.68;42.17;;;4.40;99.90;;;;;;5052878;28;20469;-82
2021/11/11 03:13:56;;;;;;;85.28;41.70;;;4.50;99.90;;;;;;5057546;28;20093;-81
2021/11/11 03:16:22;;;;;;;79.38;40.20;;;4.50;99.90;;;;;;5049220;28;20028;-81
2021/11/11 03:18:49;;;;;;;84.72;41.90;;;4.50;99.90;;;;;;5056480;28;20071;-82
2021/11/11 03:21:14;;;;;;;85.05;41.05;;;4.50;99.90;;;;;;5047401;28;20533;-81
2021/11/11 03:23:40;;;;;;;79.03;40.50;;;4.50;99.90;;;;;;5054232;28;20144;-82
2021/11/11 03:26:06;;;;;;;82.20;41.08;;;4.50;99.90;;;;;;5055009;28;20460;-81
2021/11/11 03:28:31;;;;;;;83.78;40.75;;;4.50;99.90;;;;;;5050923;28;20469;-81
2021/11/11 03:30:57;;;;;;;79.75;40.88;;;4.50;99.90;;;;;;5050935;28;20076;-82
2021/11/11 03:33:23;;;;;;;80.95;38.58;;;4.40;99.90;;;;;;5052207;28;20473;-82
2021/11/11 03:35:48;;;;;;;81.82;41.50;;;4.40;99.90;;;;;;5054980;28;20040;-81
2021/11/11 03:38:14;;;;;;;83.05;43.38;;;4.40;99.90;;;;;;5056324;28;20112;-81
2021/11/11 03:40:43;;;;;;;83.47;39.70;;;4.40;99.90;;;;;;5049876;28;20033;-81
2021/11/11 03:43:09;;;;;;;79.95;40.90;;;4.40;99.90;;;;;;5050085;28;20025;-81
2021/11/11 03:45:38;;;;;;;72.10;38.30;;;4.40;99.90;;;;;;5051428;28;20377;-81
2021/11/11 03:48:05;;;;;;;77.38;39.25;;;4.40;99.90;;;;;;5053361;28;20029;-82
2021/11/11 03:50:31;;;;;;;78.20;40.58;;;4.30;99.90;;;;;;5049285;28;20129;-81
2021/11/11 03:52:57;;;;;;;74.45;36.45;;;4.20;99.90;;;;;;5063867;28;20476;-81
2021/11/11 03:55:25;;;;;;;75.38;37.55;;;4.20;99.90;;;;;;5054187;28;20039;-82
2021/11/11 03:57:52;;;;;;;75.70;37.05;;;4.20;99.90;;;;;;5057004;28;20028;-81
2021/11/11 04:00:19;;;;;;;76.47;35.08;;;4.30;99.90;;;;;;5054483;28;20021;-81
2021/11/11 04:02:45;;;;;;;68.80;34.10;;;4.30;99.90;;;;;;5050201;28;20025;-81
2021/11/11 04:05:12;;;;;;;70.05;36.47;;;4.40;99.90;;;;;;5051810;28;20095;-81
2021/11/11 04:07:38;;;;;;;84.38;41.47;;;4.40;99.90;;;;;;5054452;28;20021;-81
2021/11/11 04:10:05;;;;;;;76.45;37.55;;;4.40;99.90;;;;;;5054959;28;20025;-81
2021/11/11 04:12:31;;;;;;;90.18;41.38;;;4.50;99.90;;;;;;5048476;28;20021;-81
2021/11/11 04:14:56;;;;;;;84.22;38.25;;;4.50;99.90;;;;;;5049659;28;20488;-81
2021/11/11 04:17:22;;;;;;;77.38;38.05;;;4.50;99.90;;;;;;5051091;28;20025;-81
2021/11/11 04:19:48;;;;;;;81.32;39.53;;;4.60;99.90;;;;;;5048096;28;20022;-82
2021/11/11 04:22:14;;;;;;;87.28;40.30;;;4.60;99.90;;;;;;5053692;28;22055;-82
2021/11/11 04:24:40;;;;;;;86.35;40.15;;;4.50;99.90;;;;;;5051996;28;20432;-81
2021/11/11 04:27:11;;;;;;;80.20;38.50;;;4.60;99.90;;;;;;5048007;28;20055;-81
2021/11/11 04:29:42;;;;;;;83.53;39.65;;;4.60;99.90;;;;;;5046038;28;20039;-83
2021/11/11 04:32:11;;;;;;;81.40;40.70;;;4.70;99.90;;;;;;5054331;28;20025;-81
2021/11/11 04:34:38;;;;;;;93.50;43.78;;;4.70;99.90;;;;;;5045832;28;20489;-82
2021/11/11 05:00:47;;;;;;;81.63;38.13;;;4.90;99.90;;;;;;5053444;28;20455;-81
2021/11/11 05:03:19;;;;;;;80.88;35.85;;;4.90;99.90;;;;;;5052418;28;20049;-81
2021/11/11 05:05:45;;;;;;;79.05;36.30;;;4.80;99.90;;;;;;5044157;28;20477;-80
2021/11/11 05:08:11;;;;;;;77.43;37.92;;;4.90;99.90;;;;;;5053664;28;20107;-81
2021/11/11 05:10:37;;;;;;;72.38;35.40;;;4.80;99.90;;;;;;5046368;28;20037;-80
2021/11/11 05:13:03;;;;;;;75.95;36.15;;;4.90;99.90;;;;;;5053247;28;20377;-80
2021/11/11 05:15:29;;;;;;;81.50;39.83;;;5.00;99.90;;;;;;5047067;28;20076;-80
2021/11/11 05:17:55;;;;;;;76.32;37.45;;;5.00;99.90;;;;;;5049334;28;20114;-80
2021/11/11 05:20:21;;;;;;;64.82;33.70;;;5.10;99.90;;;;;;5052041;28;20112;-80
2021/11/11 05:22:48;;;;;;;81.63;41.28;;;5.00;99.90;;;;;;5047853;28;20075;-80
2021/11/11 05:25:15;;;;;;;103.82;43.22;;;5.00;99.90;;;;;;5046041;28;20044;-80
2021/11/11 05:27:43;;;;;;;78.53;36.03;;;5.10;99.90;;;;;;5053689;28;20044;-80
2021/11/11 05:30:12;;;;;;;84.07;38.75;;;5.20;99.90;;;;;;5054986;28;20028;-79
2021/11/11 05:32:38;;;;;;;83.93;39.67;;;5.10;99.90;;;;;;5047462;28;20109;-80
2021/11/11 05:35:06;;;;;;;79.63;37.17;;;5.20;99.90;;;;;;5047593;28;20045;-80
2021/11/11 05:37:32;;;;;;;82.05;38.03;;;5.20;99.90;;;;;;5051723;28;20063;-79
2021/11/11 05:39:58;;;;;;;79.10;36.95;;;5.20;99.90;;;;;;5044559;28;20140;-79
2021/11/11 05:42:25;;;;;;;78.38;35.25;;;5.30;99.90;;;;;;5051620;28;20033;-80
2021/11/11 05:44:51;;;;;;;67.63;33.47;;;5.20;99.90;;;;;;5050594;28;20025;-79
2021/11/11 05:47:17;;;;;;;90.55;41.42;;;5.30;99.90;;;;;;5045086;28;20397;-80
2021/11/11 05:49:43;;;;;;;74.75;37.20;;;5.20;99.90;;;;;;5052904;28;20465;-79
2021/11/11 05:52:09;;;;;;;95.50;41.25;;;5.20;99.90;;;;;;5045734;28;20029;-80
2021/11/11 05:54:38;;;;;;;92.43;42.17;;;5.20;99.90;;;;;;5051057;28;20033;-79
2021/11/11 05:57:05;;;;;;;76.72;36.25;;;5.20;99.90;;;;;;5049594;28;20028;-79
2021/11/11 05:59:31;;;;;;;91.03;38.70;;;5.30;99.90;;;;;;5052691;28;20457;-80
2021/11/11 06:01:57;;;;;;;77.55;37.25;;;5.40;99.90;;;;;;5042206;28;20025;-79
2021/11/11 06:04:23;;;;;;;88.40;39.70;;;5.40;99.90;;;;;;5047404;28;20021;-80
2021/11/11 06:06:49;;;;;;;81.32;39.22;;;5.40;99.90;;;;;;5052372;28;20466;-78
2021/11/11 06:09:14;;;;;;;73.05;35.10;;;5.40;99.90;;;;;;5052186;28;20017;-80
2021/11/11 06:11:40;;;;;;;95.68;41.13;;;5.50;99.90;;;;;;5045781;28;20068;-80
2021/11/11 06:14:06;;;;;;;72.03;34.15;;;5.50;99.90;;;;;;5050254;28;20475;-80
2021/11/11 06:16:32;;;;;;;90.10;44.63;;;5.40;99.90;;;;;;5050891;28;20037;-81
2021/11/11 06:18:58;;;;;;;85.18;39.92;;;5.30;99.90;;;;;;5045893;28;20469;-79
2021/11/11 06:21:24;;;;;;;98.07;45.38;;;5.40;99.90;;;;;;5050149;28;20025;-80
2021/11/11 06:23:51;;;;;;;85.25;41.15;;;5.40;99.90;;;;;;5046838;28;20025;-78
2021/11/11 06:26:22;;;;;;;95.15;42.92;;;5.50;99.90;;;;;;5046925;28;20112;-80
2021/11/11 06:28:48;;;;;;;78.38;37.42;;;5.40;99.90;;;;;;5051222;28;20466;-80
2021/11/11 06:31:14;;;;;;;88.82;37.60;;;5.50;99.90;;;;;;5047455;28;20358;-80
2021/11/11 06:33:40;;;;;;;77.75;36.05;;;5.50;99.90;;;;;;5054855;28;20013;-80
2021/11/11 06:36:06;;;;;;;79.53;37.22;;;5.60;99.90;;;;;;5046744;28;20033;-80
2021/11/11 06:38:31;;;;;;;104.22;44.10;;;5.60;99.90;;;;;;5050602;28;20419;-81
2021/11/11 06:40:57;;;;;;;84.43;40.08;;;5.60;99.90;;;;;;5047554;28;20065;-80
2021/11/11 06:43:23;;;;;;;85.10;40.78;;;5.60;99.90;;;;;;5051075;28;20020;-81
2021/11/11 06:45:49;;;;;;;113.72;48.92;;;5.70;99.90;;;;;;5054629;28;20381;-80
2021/11/11 06:48:15;;;;;;;112.72;50.08;;;5.60;99.90;;;;;;5055549;28;20028;-80
2021/11/11 06:50:43;;;;;;;100.20;50.47;;;5.60;99.90;;;;;;5050768;28;20032;-80
2021/11/11 06:53:10;;;;;;;108.70;52.10;;;5.60;99.90;;;;;;5050893;28;20021;-81
2021/11/11 06:55:36;;;;;;;79.32;39.95;;;5.70;99.90;;;;;;5050590;28;20039;-80
2021/11/11 06:58:03;;;;;;;112.80;52.10;;;5.80;99.90;;;;;;5050995;28;20039;-81
2021/11/11 07:00:29;;;;;;;107.55;47.80;;;5.60;99.90;;;;;;5054645;28;20029;-80
2021/11/11 07:02:55;;;;;;;97.55;43.25;;;5.70;99.90;;;;;;5048415;28;20052;-80
2021/11/11 07:05:21;;;;;;;101.43;44.90;;;5.80;99.90;;;;;;5054933;28;20055;-80
2021/11/11 07:07:47;;;;;;;104.43;47.35;;;5.80;99.90;;;;;;5050334;28;20397;-80
2021/11/11 07:10:14;;;;;;;87.88;41.10;;;5.80;99.90;;;;;;5051171;28;20029;-80
2021/11/11 07:12:39;;;;;;;124.18;50.47;;;5.90;99.90;;;;;;5048324;28;20032;-81
2021/11/11 07:15:08;;;;;;;93.70;44.72;;;5.80;99.90;;;;;;5052267;28;20420;-81
2021/11/11 07:17:36;;;;;;;113.60;50.13;;;5.90;99.90;;;;;;5049410;28;20097;-81
2021/11/11 07:20:04;;;;;;;108.38;51.95;;;5.90;99.90;;;;;;5051405;28;20482;-80
2021/11/11 07:22:31;;;;;;;117.88;52.30;;;6.00;99.90;;;;;;5058057;28;20144;-80
2021/11/11 07:24:57;;;;;;;122.97;53.88;;;6.00;99.90;;;;;;5048426;28;20095;-80
2021/11/11 07:27:23;;;;;;;106.07;50.53;;;6.00;99.90;;;;;;5053592;28;20461;-80
2021/11/11 07:29:49;;;;;;;99.85;49.00;;;6.00;99.90;;;;;;5055855;28;20033;-81
2021/11/11 07:32:14;;;;;;;99.32;45.55;;;6.10;99.90;;;;;;5055157;28;20017;-80
2021/11/11 07:34:40;;;;;;;102.25;48.28;;;6.20;99.90;;;;;;5055632;28;20051;-79
2021/11/11 07:37:07;;;;;;;84.45;42.33;;;6.20;99.90;;;;;;5055181;28;20037;-81
2021/11/11 07:39:33;;;;;;;75.88;39.15;;;6.30;99.90;;;;;;5048601;28;20022;-81
2021/11/11 07:41:59;;;;;;;98.97;43.97;;;6.30;99.90;;;;;;5035737;28;20033;-79
2021/11/11 07:44:25;;;;;;;88.43;40.60;;;6.30;99.90;;;;;;5035939;28;20034;-81
2021/11/11 07:46:51;;;;;;;116.25;51.47;;;6.30;99.90;;;;;;5034332;28;20028;-80
2021/11/11 07:49:16;;;;;;;102.40;47.78;;;6.30;99.90;;;;;;5035865;28;20036;-81
2021/11/11 07:51:42;;;;;;;104.53;49.35;;;6.40;99.90;;;;;;5043518;28;20020;-81
2021/11/11 07:54:09;;;;;;;108.80;49.55;;;6.40;99.90;;;;;;5052632;28;20025;-81
2021/11/11 07:56:35;;;;;;;96.13;48.35;;;6.40;99.90;;;;;;5040218;28;20079;-81
2021/11/11 07:59:02;;;;;;;94.07;44.78;;;6.50;99.90;;;;;;5055407;28;20092;-80
2021/11/11 08:01:27;;;;;;;90.15;44.10;;;6.60;99.90;;;;;;5048086;28;20025;-81
2021/11/11 08:03:53;;;;;;;94.70;45.53;;;6.60;99.90;;;;;;5036077;28;20026;-81
2021/11/11 08:06:19;;;;;;;83.50;39.75;;;6.70;99.90;;;;;;5047995;28;20030;-81
2021/11/11 08:08:45;;;;;;;81.97;39.65;;;6.70;99.90;;;;;;5035344;28;20079;-80
2021/11/11 08:11:11;;;;;;;94.03;41.83;;;6.70;99.90;;;;;;5043173;28;20021;-81
2021/11/11 08:13:36;;;;;;;106.22;49.65;;;6.70;99.90;;;;;;5044594;28;20029;-81
2021/11/11 08:16:02;;;;;;;94.10;43.88;;;6.80;99.90;;;;;;5050625;28;20059;-79
2021/11/11 08:18:28;;;;;;;110.78;52.13;;;6.80;99.90;;;;;;5054490;28;20028;-79
2021/11/11 08:20:54;;;;;;;112.45;49.58;;;6.80;99.90;;;;;;5053805;28;20021;-80
2021/11/11 08:23:22;;;;;;;114.10;49.67;;;6.90;99.90;;;;;;5052478;28;20374;-79
2021/11/11 08:25:49;;;;;;;103.70;49.15;;;6.90;99.90;;;;;;5054521;28;20025;-81
2021/11/11 08:28:16;;;;;;;111.95;48.28;;;6.90;99.90;;;;;;5040362;28;20106;-81
2021/11/11 08:30:44;;;;;;;117.07;52.33;;;6.90;99.90;;;;;;5044440;28;20086;-80
2021/11/11 08:33:10;;;;;;;105.57;47.80;;;6.90;99.90;;;;;;5053719;28;20017;-78
2021/11/11 08:35:36;;;;;;;94.68;46.47;;;7.00;99.90;;;;;;5052025;28;20194;-81
2021/11/11 08:38:03;;;;;;;102.50;51.08;;;7.00;99.90;;;;;;5050563;28;20064;-82
2021/11/11 08:40:29;;;;;;;106.53;48.05;;;7.10;99.90;;;;;;5054578;28;20017;-81
2021/11/11 08:42:57;;;;;;;105.88;50.35;;;7.10;99.90;;;;;;5046334;28;20095;-81
2021/11/11 08:45:24;;;;;;;99.90;48.10;;;7.00;99.90;;;;;;5032478;28;20021;-82
2021/11/11 08:47:50;;;;;;;95.88;46.22;;;7.00;99.90;;;;;;5045341;28;20029;-81
2021/11/11 08:50:16;;;;;;;102.47;48.33;;;7.10;99.90;;;;;;5045730;28;20028;-81
2021/11/11 08:52:44;;;;;;;100.20;47.40;;;7.10;99.90;;;;;;5044115;28;20025;-81
2021/11/11 08:55:12;;;;;;;91.03;44.55;;;7.30;99.90;;;;;;5038745;28;20021;-82
2021/11/11 08:57:38;;;;;;;110.53;51.63;;;7.30;99.90;;;;;;5045925;28;20021;-82
2021/11/11 09:00:13;;;;;;;92.22;47.03;;;7.30;99.90;;;;;;5040544;28;20431;-80
2021/11/11 09:02:39;;;;;;;89.22;43.55;;;7.20;99.90;;;;;;5034400;28;20029;-81
2021/11/11 09:05:06;;;;;;;93.28;45.75;;;7.20;99.90;;;;;;5031811;28;20033;-82
2021/11/11 09:07:32;;;;;;;96.68;48.65;;;7.20;99.90;;;;;;5034331;28;20485;-80
2021/11/11 09:09:58;;;;;;;95.70;49.17;;;7.30;99.90;;;;;;5032957;28;20108;-81
2021/11/11 09:12:24;;;;;;;100.03;48.33;;;7.30;99.90;;;;;;5034253;28;20026;-81
2021/11/11 09:14:49;;;;;;;107.82;48.15;;;7.40;99.90;;;;;;5032083;28;20481;-80
2021/11/11 09:17:15;;;;;;;98.55;45.83;;;7.40;99.90;;;;;;5033990;28;20026;-81
2021/11/11 09:19:41;;;;;;;101.65;47.90;;;7.50;99.90;;;;;;5032209;28;20067;-80
2021/11/11 09:22:07;;;;;;;103.95;48.65;;;7.50;99.90;;;;;;5044844;28;20473;-80
2021/11/11 09:24:33;;;;;;;106.43;45.35;;;7.50;99.90;;;;;;5052621;28;20075;-81
2021/11/11 09:26:59;;;;;;;82.55;42.28;;;7.60;99.90;;;;;;5052705;28;20091;-80
2021/11/11 09:29:25;;;;;;;92.93;45.55;;;7.60;99.90;;;;;;5033955;28;20501;-81
2021/11/11 09:31:50;;;;;;;99.65;47.85;;;7.70;99.90;;;;;;5053076;28;20036;-81
2021/11/11 09:34:16;;;;;;;92.10;43.72;;;7.70;99.90;;;;;;5051726;28;20463;-80
2021/11/11 09:36:42;;;;;;;92.43;46.33;;;7.70;99.90;;;;;;5053481;28;20017;-81
2021/11/11 09:39:08;;;;;;;82.40;41.90;;;7.80;99.90;;;;;;5053581;28;20029;-80
2021/11/11 09:41:34;;;;;;;91.72;45.95;;;7.80;99.90;;;;;;5052862;28;20070;-80
2021/11/11 09:44:00;;;;;;;92.30;43.88;;;7.90;99.90;;;;;;5053860;28;20059;-82
2021/11/11 09:46:26;;;;;;;89.50;42.70;;;7.90;99.90;;;;;;5043804;28;20044;-80
2021/11/11 09:48:52;;;;;;;91.75;42.53;;;7.80;99.90;;;;;;5033095;28;20029;-81
2021/11/11 09:51:22;;;;;;;82.03;41.08;;;7.80;99.90;;;;;;5039450;28;20490;-80
2021/11/11 09:53:55;;;;;;;87.80;40.97;;;7.90;99.90;;;;;;5031068;28;20414;-81
2021/11/11 09:59:06;;;;;;;83.55;43.50;;;8.00;99.90;;;;;;5033225;28;20118;-77
2021/11/11 10:01:32;;;;;;;83.65;41.83;;;8.00;99.90;;;;;;5049854;28;20465;-76
2021/11/11 10:03:57;;;;;;;94.32;43.08;;;8.00;99.90;;;;;;5052256;28;20078;-76
2021/11/11 10:06:26;;;;;;;85.63;40.05;;;8.00;99.90;;;;;;5052739;28;20024;-76
2021/11/11 10:08:57;;;;;;;82.13;39.92;;;8.10;99.90;;;;;;5052538;28;20412;-77
2021/11/11 10:11:31;;;;;;;78.70;39.20;;;8.10;99.90;;;;;;5051849;28;20155;-77
2021/11/11 10:14:01;;;;;;;83.72;41.78;;;8.20;99.90;;;;;;5052146;28;20021;-77
2021/11/11 10:16:27;;;;;;;87.13;42.80;;;8.20;99.90;;;;;;5052236;28;20104;-76
2021/11/11 10:18:56;;;;;;;82.50;39.53;;;8.30;99.90;;;;;;5052648;28;20025;-77
2021/11/11 10:21:43;;;;;;;86.60;39.65;;;8.30;99.90;;;;;;5052230;28;20040;-77
2021/11/11 10:24:14;;;;;;;81.35;38.03;;;8.30;99.90;;;;;;5051474;28;20013;-76
2021/11/11 10:26:44;;;;;;;79.18;37.35;;;8.30;99.90;;;;;;5052385;28;20024;-79
2021/11/11 10:30:04;;;;;;;74.55;36.60;;;8.40;99.90;;;;;;5033754;28;20029;-77
2021/11/11 10:32:38;;;;;;;77.03;35.85;;;8.40;99.90;;;;;;5028408;28;20426;-77
2021/11/11 10:35:32;;;;;;;76.57;38.17;;;8.50;99.90;;;;;;5031796;28;20052;-76
2021/11/11 10:38:03;;;;;;;66.57;34.55;;;8.40;99.90;;;;;;5032510;28;20474;-77
2021/11/11 10:40:35;;;;;;;68.50;37.07;;;8.50;99.90;;;;;;5042368;28;20048;-76
2021/11/11 10:43:06;;;;;;;65.90;35.53;;;8.50;99.90;;;;;;5041895;28;20045;-76
2021/11/11 10:45:35;;;;;;;69.78;36.95;;;8.50;99.90;;;;;;5044141;28;20108;-76
2021/11/11 10:48:04;;;;;;;72.18;35.42;;;8.50;99.90;;;;;;5042050;28;20481;-77
2021/11/11 10:50:32;;;;;;;72.75;35.97;;;8.60;99.90;;;;;;5051522;28;20066;-76
2021/11/11 10:53:01;;;;;;;70.97;37.33;;;8.60;99.90;;;;;;5052477;28;20025;-77
2021/11/11 10:55:41;;;;;;;74.82;35.63;;;8.60;99.90;;;;;;5050675;28;20057;-77
2021/11/11 10:58:16;;;;;;;75.75;36.78;;;8.70;99.90;;;;;;5041095;28;20071;-78
2021/11/11 11:00:53;;;;;;;70.47;35.22;;;8.70;99.90;;;;;;5041974;28;20025;-77
2021/11/11 11:03:20;;;;;;;69.45;35.85;;;8.70;99.90;;;;;;5039423;28;20496;-77
2021/11/11 11:05:48;;;;;;;59.47;33.30;;;8.80;99.90;;;;;;5046544;28;20136;-77
2021/11/11 11:08:19;;;;;;;69.68;36.58;;;8.80;99.90;;;;;;5030564;28;20474;-77
2021/11/11 11:10:50;;;;;;;68.63;34.95;;;8.90;99.90;;;;;;5042690;28;20029;-79
2021/11/11 11:13:23;;;;;;;64.45;34.50;;;8.90;99.90;;;;;;5041781;28;20106;-79
2021/11/11 11:15:55;;;;;;;71.68;35.30;;;8.90;99.90;;;;;;5036982;28;20041;-79
2021/11/11 11:18:46;;;;;;;63.17;33.47;;;8.90;99.90;;;;;;5041570;28;20018;-79
2021/11/11 11:21:20;;;;;;;68.32;36.05;;;8.90;99.90;;;;;;5040869;28;20033;-79
2021/11/11 11:23:52;;;;;;;72.47;33.60;;;9.00;99.90;;;;;;5042428;28;20025;-79
2021/11/11 11:26:25;;;;;;;71.22;34.17;;;9.00;99.90;;;;;;5041766;28;20517;-80
2021/11/11 11:31:46;;;;;;;67.82;34.92;;;9.00;99.90;;;;;;5041270;28;20056;-79
2021/11/11 11:34:22;;;;;;;65.13;34.08;;;9.00;99.90;;;;;;5052024;28;20033;-79
2021/11/11 11:36:54;;;;;;;57.08;31.52;;;9.10;99.90;;;;;;5052302;28;20086;-79
2021/11/11 11:39:24;;;;;;;62.28;31.38;;;9.20;99.90;;;;;;5045907;28;20017;-79
2021/11/11 11:41:50;;;;;;;53.33;29.85;;;9.20;99.90;;;;;;5044517;28;20029;-80
2021/11/11 11:44:24;;;;;;;62.85;32.72;;;9.30;99.90;;;;;;5042842;28;20056;-79
2021/11/11 11:47:16;;;;;;;50.85;30.48;;;9.30;99.90;;;;;;5040250;28;20032;-79
2021/11/11 11:49:45;;;;;;;53.93;28.90;;;9.40;99.90;;;;;;5048239;28;20025;-79
2021/11/11 11:52:12;;;;;;;61.33;29.83;;;9.50;99.90;;;;;;5051004;28;20283;-79
2021/11/11 11:54:51;;;;;;;56.28;31.48;;;9.50;99.90;;;;;;5053472;28;20029;-80
2021/11/11 11:57:35;;;;;;;63.50;32.42;;;9.50;99.90;;;;;;5052413;28;20033;-80
2021/11/11 12:00:09;;;;;;;55.15;31.58;;;9.60;99.90;;;;;;5047836;28;20100;-79
2021/11/11 12:08:01;;;;;;;54.40;30.87;;;9.80;99.90;;;;;;5034735;28;20037;-77
2021/11/11 12:40:08;;;;;;;49.75;29.80;;;10.20;99.90;;;;;;5050150;28;20051;-76
2021/11/11 12:42:55;;;;;;;56.40;30.13;;;10.20;99.90;;;;;;5052342;28;20029;-77
2021/11/11 12:45:34;;;;;;;50.22;28.40;;;10.30;99.90;;;;;;5048714;28;20017;-77
2021/11/11 12:48:05;;;;;;;53.22;28.88;;;10.40;99.90;;;;;;5043179;28;20049;-77
2021/11/11 12:50:31;;;;;;;51.83;28.05;;;10.40;99.90;;;;;;5043481;28;20090;-77
2021/11/11 12:55:39;;;;;;;56.25;29.35;;;10.50;99.90;;;;;;5047004;28;20070;-77
2021/11/11 12:58:07;;;;;;;57.85;30.70;;;10.50;99.90;;;;;;5038989;28;20466;-76
2021/11/11 13:00:40;;;;;;;47.85;26.83;;;10.50;99.90;;;;;;5043901;28;20033;-77
2021/11/11 13:03:07;;;;;;;44.92;25.95;;;10.60;99.90;;;;;;5049790;28;20036;-77
2021/11/11 13:05:56;;;;;;;42.90;25.63;;;10.60;99.90;;;;;;5052979;28;20078;-77
2021/11/11 13:08:53;;;;;;;44.22;26.50;;;10.60;99.90;;;;;;5052718;28;20070;-77
2021/11/11 13:11:47;;;;;;;59.10;28.00;;;10.70;99.90;;;;;;5053426;28;20033;-77
2021/11/11 13:14:26;;;;;;;52.97;29.38;;;10.70;99.90;;;;;;5051131;28;20037;-77
2021/11/11 13:16:54;;;;;;;54.08;28.15;;;10.80;99.90;;;;;;5048134;28;20033;-77
2021/11/11 13:19:38;;;;;;;53.83;29.92;;;10.80;99.90;;;;;;5051306;28;20052;-76
2021/11/11 13:22:18;;;;;;;52.38;28.83;;;10.80;99.90;;;;;;5053081;28;20090;-77
2021/11/11 14:03:26;;;;;;;52.72;31.63;;;11.10;99.90;;;;;;5047725;28;20405;-77
2021/11/11 15:57:14;;;;;;;60.13;34.30;;;10.70;99.90;;;;;;5038974;28;20507;-78
2021/11/11 16:00:10;;;;;;;66.85;35.33;;;10.60;99.90;;;;;;5035009;28;20017;-77
2021/11/11 16:26:52;;;;;;;55.28;29.77;;;10.30;99.90;;;;;;5034628;28;20033;-81
2021/11/11 16:29:17;;;;;;;59.38;32.75;;;10.40;99.90;;;;;;5034956;28;20025;-80
2021/11/11 16:31:43;;;;;;;53.33;32.53;;;10.40;99.90;;;;;;5049600;28;20405;-80
2021/11/11 16:34:09;;;;;;;62.80;32.75;;;10.40;99.90;;;;;;5052016;28;20025;-80
2021/11/11 16:36:40;;;;;;;56.83;31.98;;;10.40;99.90;;;;;;5052060;28;20037;-79
2021/11/11 16:39:07;;;;;;;69.43;35.20;;;10.30;99.90;;;;;;5035595;28;20056;-80
2021/11/11 16:41:33;;;;;;;59.03;33.88;;;10.40;99.90;;;;;;5034078;28;20029;-80